sensor_id;sensor_type;location;lat;lon;timestamp;temperature;humidity
31455;DHT22;18084;53.028;8.834;2023-08-08T00:01:55;12.90;99.90
31455;DHT22;18084;53.028;8.834;2023-08-08T00:04:21;12.90;99.90
31455;DHT22;18084;53.028;8.834;2023-08-08T00:06:49;14.00;99.90
31455;DHT22;18084;53.028;8.834;2023-08-08T00:09:15;11.80;99.90
31455;DHT22;18084;53.028;8.834;2023-08-08T00:11:40;12.90;99.90
31455;DHT22;18084;53.028;8.834;2023-08-08T00:14:06;14.40;99.90
31455;DHT22;18084;53.028;8.834;2023-08-08T00:16:31;15.00;99.90
31455;DHT22;18084;53.028;8.834;2023-08-08T00:18:57;13.00;99.90
31455;DHT22;18084;53.028;8.834;2023-08-08T00:21:22;16.00;99.90
31455;DHT22;18084;53.028;8.834;2023-08-08T00:23:48;12.90;99.90
31455;DHT22;18084;53.028;8.834;2023-08-08T00:26:13;13.60;99.90
31455;DHT22;18084;53.028;8.834;2023-08-08T00:28:39;15.90;99.90
31455;DHT22;18084;53.028;8.834;2023-08-08T00:31:06;13.70;99.90
31455;DHT22;18084;53.028;8.834;2023-08-08T00:33:31;13.00;99.90
31455;DHT22;18084;53.028;8.834;2023-08-08T00:35:57;15.30;99.90
31455;DHT22;18084;53.028;8.834;2023-08-08T00:38:22;12.90;99.90
31455;DHT22;18084;53.028;8.834;2023-08-08T00:40:48;11.70;99.90
31455;DHT22;18084;53.028;8.834;2023-08-08T00:43:13;13.30;99.90
31455;DHT22;18084;53.028;8.834;2023-08-08T00:45:42;14.90;99.90
31455;DHT22;18084;53.028;8.834;2023-08-08T00:48:08;14.00;99.90
31455;DHT22;18084;53.028;8.834;2023-08-08T00:50:37;13.50;99.90
31455;DHT22;18084;53.028;8.834;2023-08-08T00:53:04;12.90;99.90
31455;DHT22;18084;53.028;8.834;2023-08-08T00:55:30;15.00;99.90
31455;DHT22;18084;53.028;8.834;2023-08-08T00:57:56;14.00;99.90
31455;DHT22;18084;53.028;8.834;2023-08-08T01:00:22;12.90;99.90
31455;DHT22;18084;53.028;8.834;2023-08-08T01:02:48;13.80;99.90
31455;DHT22;18084;53.028;8.834;2023-08-08T01:05:13;12.90;99.90
31455;DHT22;18084;53.028;8.834;2023-08-08T01:10:28;15.30;99.90
31455;DHT22;18084;53.028;8.834;2023-08-08T01:12:58;15.80;99.90
31455;DHT22;18084;53.028;8.834;2023-08-08T01:15:25;15.70;99.90
31455;DHT22;18084;53.028;8.834;2023-08-08T01:17:51;12.90;99.90
31455;DHT22;18084;53.028;8.834;2023-08-08T01:20:17;15.40;99.90
31455;DHT22;18084;53.028;8.834;2023-08-08T01:23:15;14.30;99.90
31455;DHT22;18084;53.028;8.834;2023-08-08T01:25:42;15.10;99.90
31455;DHT22;18084;53.028;8.834;2023-08-08T01:28:09;15.10;99.90
31455;DHT22;18084;53.028;8.834;2023-08-08T01:30:35;12.90;99.90
31455;DHT22;18084;53.028;8.834;2023-08-08T01:33:01;12.90;99.90
31455;DHT22;18084;53.028;8.834;2023-08-08T01:35:30;12.90;99.90
31455;DHT22;18084;53.028;8.834;2023-08-08T01:38:20;15.90;99.90
31455;DHT22;18084;53.028;8.834;2023-08-08T01:40:48;12.90;99.90
31455;DHT22;18084;53.028;8.834;2023-08-08T01:43:15;15.30;99.90
31455;DHT22;18084;53.028;8.834;2023-08-08T01:45:41;15.50;99.90
31455;DHT22;18084;53.028;8.834;2023-08-08T01:48:09;14.00;99.90
31455;DHT22;18084;53.028;8.834;2023-08-08T01:50:35;13.00;99.90
31455;DHT22;18084;53.028;8.834;2023-08-08T01:53:01;14.80;99.90
31455;DHT22;18084;53.028;8.834;2023-08-08T01:55:27;14.00;99.90
31455;DHT22;18084;53.028;8.834;2023-08-08T01:57:52;13.00;99.90
31455;DHT22;18084;53.028;8.834;2023-08-08T02:00:18;15.20;99.90
31455;DHT22;18084;53.028;8.834;2023-08-08T02:02:43;13.10;99.90
31455;DHT22;18084;53.028;8.834;2023-08-08T02:05:09;13.00;99.90
31455;DHT22;18084;53.028;8.834;2023-08-08T02:07:35;15.20;99.90
31455;DHT22;18084;53.028;8.834;2023-08-08T02:10:00;13.10;99.90
31455;DHT22;18084;53.028;8.834;2023-08-08T02:12:26;15.30;99.90
31455;DHT22;18084;53.028;8.834;2023-08-08T02:14:52;14.20;99.90
31455;DHT22;18084;53.028;8.834;2023-08-08T02:17:17;14.70;99.90
31455;DHT22;18084;53.028;8.834;2023-08-08T02:19:43;14.60;99.90
31455;DHT22;18084;53.028;8.834;2023-08-08T02:22:09;15.00;99.90
31455;DHT22;18084;53.028;8.834;2023-08-08T02:24:34;13.40;99.90
31455;DHT22;18084;53.028;8.834;2023-08-08T02:27:00;13.20;99.90
31455;DHT22;18084;53.028;8.834;2023-08-08T02:29:26;12.70;99.90
31455;DHT22;18084;53.028;8.834;2023-08-08T02:31:51;14.80;99.90
31455;DHT22;18084;53.028;8.834;2023-08-08T02:34:17;15.40;99.90
31455;DHT22;18084;53.028;8.834;2023-08-08T02:36:42;15.90;99.90
31455;DHT22;18084;53.028;8.834;2023-08-08T02:39:08;15.60;99.90
31455;DHT22;18084;53.028;8.834;2023-08-08T02:41:33;12.90;99.90
31455;DHT22;18084;53.028;8.834;2023-08-08T02:43:59;13.80;99.90
31455;DHT22;18084;53.028;8.834;2023-08-08T02:46:24;13.80;99.90
31455;DHT22;18084;53.028;8.834;2023-08-08T02:48:50;13.80;99.90
31455;DHT22;18084;53.028;8.834;2023-08-08T02:51:15;13.80;99.90
31455;DHT22;18084;53.028;8.834;2023-08-08T02:53:50;15.60;99.90
31455;DHT22;18084;53.028;8.834;2023-08-08T02:56:15;12.90;99.90
31455;DHT22;18084;53.028;8.834;2023-08-08T02:58:41;15.20;99.90
31455;DHT22;18084;53.028;8.834;2023-08-08T03:01:07;15.50;99.90
31455;DHT22;18084;53.028;8.834;2023-08-08T03:03:32;14.90;99.90
31455;DHT22;18084;53.028;8.834;2023-08-08T03:05:58;14.70;99.90
31455;DHT22;18084;53.028;8.834;2023-08-08T03:08:23;14.70;99.90
31455;DHT22;18084;53.028;8.834;2023-08-08T03:10:49;15.90;99.90
31455;DHT22;18084;53.028;8.834;2023-08-08T03:13:14;14.00;99.90
31455;DHT22;18084;53.028;8.834;2023-08-08T03:15:40;15.40;99.90
31455;DHT22;18084;53.028;8.834;2023-08-08T03:18:06;16.10;99.90
31455;DHT22;18084;53.028;8.834;2023-08-08T03:20:31;15.70;99.90
31455;DHT22;18084;53.028;8.834;2023-08-08T03:22:57;15.00;99.90
31455;DHT22;18084;53.028;8.834;2023-08-08T03:25:22;14.80;99.90
31455;DHT22;18084;53.028;8.834;2023-08-08T03:27:51;14.20;99.90
31455;DHT22;18084;53.028;8.834;2023-08-08T03:30:16;13.00;99.90
31455;DHT22;18084;53.028;8.834;2023-08-08T03:32:42;13.00;99.90
31455;DHT22;18084;53.028;8.834;2023-08-08T03:35:07;14.30;99.90
31455;DHT22;18084;53.028;8.834;2023-08-08T03:37:34;13.00;99.90
31455;DHT22;18084;53.028;8.834;2023-08-08T03:40:00;13.90;99.90
31455;DHT22;18084;53.028;8.834;2023-08-08T03:42:25;14.30;99.90
31455;DHT22;18084;53.028;8.834;2023-08-08T03:44:51;13.50;99.90
31455;DHT22;18084;53.028;8.834;2023-08-08T03:47:17;13.00;99.90
31455;DHT22;18084;53.028;8.834;2023-08-08T03:49:42;13.10;99.90
31455;DHT22;18084;53.028;8.834;2023-08-08T03:54:34;13.10;99.90
31455;DHT22;18084;53.028;8.834;2023-08-08T03:56:59;13.20;99.90
31455;DHT22;18084;53.028;8.834;2023-08-08T03:59:26;15.90;99.90
31455;DHT22;18084;53.028;8.834;2023-08-08T04:01:52;13.20;99.90
31455;DHT22;18084;53.028;8.834;2023-08-08T04:04:19;14.40;99.90
31455;DHT22;18084;53.028;8.834;2023-08-08T04:06:44;15.40;99.90
31455;DHT22;18084;53.028;8.834;2023-08-08T04:09:10;16.40;99.90
31455;DHT22;18084;53.028;8.834;2023-08-08T04:11:36;15.60;99.90
31455;DHT22;18084;53.028;8.834;2023-08-08T04:14:02;14.50;99.90
31455;DHT22;18084;53.028;8.834;2023-08-08T04:16:28;16.00;99.90
31455;DHT22;18084;53.028;8.834;2023-08-08T04:18:53;13.30;99.90
31455;DHT22;18084;53.028;8.834;2023-08-08T04:21:19;13.30;99.90
31455;DHT22;18084;53.028;8.834;2023-08-08T04:23:44;13.50;99.90
31455;DHT22;18084;53.028;8.834;2023-08-08T04:26:12;13.50;99.90
31455;DHT22;18084;53.028;8.834;2023-08-08T04:28:37;15.90;99.90
31455;DHT22;18084;53.028;8.834;2023-08-08T04:31:03;15.30;99.90
31455;DHT22;18084;53.028;8.834;2023-08-08T04:33:29;13.90;99.90
31455;DHT22;18084;53.028;8.834;2023-08-08T04:35:54;15.60;99.90
31455;DHT22;18084;53.028;8.834;2023-08-08T04:38:20;15.10;99.90
31455;DHT22;18084;53.028;8.834;2023-08-08T04:40:46;14.40;99.90
31455;DHT22;18084;53.028;8.834;2023-08-08T04:43:11;16.20;99.90
31455;DHT22;18084;53.028;8.834;2023-08-08T04:45:37;14.80;99.90
31455;DHT22;18084;53.028;8.834;2023-08-08T04:48:02;15.90;99.90
31455;DHT22;18084;53.028;8.834;2023-08-08T04:50:28;13.70;99.90
31455;DHT22;18084;53.028;8.834;2023-08-08T04:52:53;16.20;99.90
31455;DHT22;18084;53.028;8.834;2023-08-08T04:55:20;13.80;99.90
31455;DHT22;18084;53.028;8.834;2023-08-08T04:57:45;15.00;99.90
31455;DHT22;18084;53.028;8.834;2023-08-08T05:00:11;13.80;99.90
31455;DHT22;18084;53.028;8.834;2023-08-08T05:02:37;13.90;99.90
31455;DHT22;18084;53.028;8.834;2023-08-08T05:05:05;15.30;99.90
31455;DHT22;18084;53.028;8.834;2023-08-08T05:07:30;14.00;99.90
31455;DHT22;18084;53.028;8.834;2023-08-08T05:09:56;14.10;99.90
31455;DHT22;18084;53.028;8.834;2023-08-08T05:12:21;15.70;99.90
31455;DHT22;18084;53.028;8.834;2023-08-08T05:14:47;17.30;99.90
31455;DHT22;18084;53.028;8.834;2023-08-08T05:17:12;14.50;99.90
31455;DHT22;18084;53.028;8.834;2023-08-08T05:19:38;14.50;99.90
31455;DHT22;18084;53.028;8.834;2023-08-08T05:22:04;15.60;99.90
31455;DHT22;18084;53.028;8.834;2023-08-08T05:24:29;14.60;99.90
31455;DHT22;18084;53.028;8.834;2023-08-08T05:26:55;15.90;99.90
31455;DHT22;18084;53.028;8.834;2023-08-08T05:29:21;17.40;99.90
31455;DHT22;18084;53.028;8.834;2023-08-08T05:31:46;15.40;99.90
31455;DHT22;18084;53.028;8.834;2023-08-08T05:34:13;17.60;99.90
31455;DHT22;18084;53.028;8.834;2023-08-08T05:36:39;17.50;99.90
31455;DHT22;18084;53.028;8.834;2023-08-08T05:39:04;14.90;99.90
31455;DHT22;18084;53.028;8.834;2023-08-08T05:41:32;17.00;99.90
31455;DHT22;18084;53.028;8.834;2023-08-08T05:43:59;16.50;99.90
31455;DHT22;18084;53.028;8.834;2023-08-08T05:46:26;15.90;99.90
31455;DHT22;18084;53.028;8.834;2023-08-08T05:48:52;18.00;99.90
31455;DHT22;18084;53.028;8.834;2023-08-08T05:51:17;15.70;99.90
31455;DHT22;18084;53.028;8.834;2023-08-08T05:53:43;18.00;99.90
31455;DHT22;18084;53.028;8.834;2023-08-08T05:56:08;17.40;99.90
31455;DHT22;18084;53.028;8.834;2023-08-08T05:58:34;16.80;99.90
31455;DHT22;18084;53.028;8.834;2023-08-08T06:01:02;16.00;99.90
31455;DHT22;18084;53.028;8.834;2023-08-08T06:03:31;17.70;99.90
31455;DHT22;18084;53.028;8.834;2023-08-08T06:05:57;16.70;99.90
31455;DHT22;18084;53.028;8.834;2023-08-08T06:08:23;16.50;99.90
31455;DHT22;18084;53.028;8.834;2023-08-08T06:10:48;16.50;99.90
31455;DHT22;18084;53.028;8.834;2023-08-08T06:13:14;16.80;99.90
31455;DHT22;18084;53.028;8.834;2023-08-08T06:15:40;16.80;98.10
31455;DHT22;18084;53.028;8.834;2023-08-08T06:18:05;19.10;99.90
31455;DHT22;18084;53.028;8.834;2023-08-08T06:20:31;16.40;99.90
31455;DHT22;18084;53.028;8.834;2023-08-08T06:22:57;16.40;99.90
31455;DHT22;18084;53.028;8.834;2023-08-08T06:25:22;17.10;96.50
31455;DHT22;18084;53.028;8.834;2023-08-08T06:27:48;17.10;35.50
31455;DHT22;18084;53.028;8.834;2023-08-08T06:30:14;16.90;4.40
31455;DHT22;18084;53.028;8.834;2023-08-08T06:32:41;16.80;23.80
31455;DHT22;18084;53.028;8.834;2023-08-08T06:35:07;18.70;33.70
31455;DHT22;18084;53.028;8.834;2023-08-08T06:37:33;16.80;17.10
31455;DHT22;18084;53.028;8.834;2023-08-08T06:39:59;19.50;16.90
31455;DHT22;18084;53.028;8.834;2023-08-08T06:42:25;19.30;1.00
31455;DHT22;18084;53.028;8.834;2023-08-08T06:44:51;17.30;1.00
31455;DHT22;18084;53.028;8.834;2023-08-08T06:47:19;17.70;1.00
31455;DHT22;18084;53.028;8.834;2023-08-08T06:49:44;19.00;1.00
31455;DHT22;18084;53.028;8.834;2023-08-08T06:52:10;20.30;1.00
31455;DHT22;18084;53.028;8.834;2023-08-08T06:54:35;18.90;99.90
31455;DHT22;18084;53.028;8.834;2023-08-08T06:57:01;19.00;99.90
31455;DHT22;18084;53.028;8.834;2023-08-08T06:59:27;19.30;99.90
31455;DHT22;18084;53.028;8.834;2023-08-08T07:01:53;21.20;99.90
31455;DHT22;18084;53.028;8.834;2023-08-08T07:04:18;21.50;99.90
31455;DHT22;18084;53.028;8.834;2023-08-08T07:06:47;20.10;99.90
31455;DHT22;18084;53.028;8.834;2023-08-08T07:09:13;21.20;99.90
31455;DHT22;18084;53.028;8.834;2023-08-08T07:11:44;20.30;99.90
31455;DHT22;18084;53.028;8.834;2023-08-08T07:14:09;19.60;1.00
31455;DHT22;18084;53.028;8.834;2023-08-08T07:16:37;17.80;1.00
31455;DHT22;18084;53.028;8.834;2023-08-08T07:19:03;18.70;1.00
31455;DHT22;18084;53.028;8.834;2023-08-08T07:23:54;17.20;1.00
31455;DHT22;18084;53.028;8.834;2023-08-08T07:26:23;17.80;1.00
31455;DHT22;18084;53.028;8.834;2023-08-08T07:28:49;17.00;1.00
31455;DHT22;18084;53.028;8.834;2023-08-08T07:31:14;18.50;1.00
31455;DHT22;18084;53.028;8.834;2023-08-08T07:33:45;18.50;1.00
31455;DHT22;18084;53.028;8.834;2023-08-08T13:19:36;18.40;8.60
31455;DHT22;18084;53.028;8.834;2023-08-08T13:22:02;19.70;4.60
31455;DHT22;18084;53.028;8.834;2023-08-08T13:24:28;18.60;1.00
31455;DHT22;18084;53.028;8.834;2023-08-08T13:26:57;20.70;1.00
31455;DHT22;18084;53.028;8.834;2023-08-08T13:29:22;19.50;1.00
31455;DHT22;18084;53.028;8.834;2023-08-08T13:31:48;19.20;1.00
31455;DHT22;18084;53.028;8.834;2023-08-08T13:34:15;19.10;1.00
31455;DHT22;18084;53.028;8.834;2023-08-08T13:36:41;19.10;99.90
31455;DHT22;18084;53.028;8.834;2023-08-08T13:39:09;18.90;1.00
31455;DHT22;18084;53.028;8.834;2023-08-08T13:41:35;19.00;1.00
31455;DHT22;18084;53.028;8.834;2023-08-08T13:44:04;18.90;54.60
31455;DHT22;18084;53.028;8.834;2023-08-08T13:46:30;18.60;54.10
31455;DHT22;18084;53.028;8.834;2023-08-08T13:48:55;18.90;21.50
31455;DHT22;18084;53.028;8.834;2023-08-08T13:51:24;18.80;99.90
31455;DHT22;18084;53.028;8.834;2023-08-08T13:53:50;18.70;99.90
31455;DHT22;18084;53.028;8.834;2023-08-08T13:56:16;19.90;1.00
31455;DHT22;18084;53.028;8.834;2023-08-08T13:58:42;20.20;99.90
31455;DHT22;18084;53.028;8.834;2023-08-08T14:01:08;19.50;99.90
31455;DHT22;18084;53.028;8.834;2023-08-08T14:03:33;19.70;32.90
31455;DHT22;18084;53.028;8.834;2023-08-08T14:05:59;20.60;99.90
31455;DHT22;18084;53.028;8.834;2023-08-08T14:08:25;19.80;99.90
31455;DHT22;18084;53.028;8.834;2023-08-08T14:10:51;19.80;99.90
31455;DHT22;18084;53.028;8.834;2023-08-08T14:13:17;22.50;1.00
31455;DHT22;18084;53.028;8.834;2023-08-08T14:15:44;22.10;1.00
31455;DHT22;18084;53.028;8.834;2023-08-08T14:18:10;20.40;1.00
31455;DHT22;18084;53.028;8.834;2023-08-08T14:20:37;20.60;93.70
31455;DHT22;18084;53.028;8.834;2023-08-08T14:23:03;21.80;99.90
31455;DHT22;18084;53.028;8.834;2023-08-08T14:25:29;20.80;99.90
31455;DHT22;18084;53.028;8.834;2023-08-08T14:27:55;20.40;99.90
31455;DHT22;18084;53.028;8.834;2023-08-08T14:30:22;20.00;1.00
31455;DHT22;18084;53.028;8.834;2023-08-08T14:32:49;19.70;1.00
31455;DHT22;18084;53.028;8.834;2023-08-08T14:35:16;19.40;99.90
31455;DHT22;18084;53.028;8.834;2023-08-08T14:37:41;20.10;46.90
31455;DHT22;18084;53.028;8.834;2023-08-08T14:40:07;21.20;99.90
31455;DHT22;18084;53.028;8.834;2023-08-08T14:42:34;19.40;99.90
31455;DHT22;18084;53.028;8.834;2023-08-08T14:45:01;19.60;64.50
31455;DHT22;18084;53.028;8.834;2023-08-08T14:47:27;19.40;1.00
31455;DHT22;18084;53.028;8.834;2023-08-08T14:49:52;19.80;99.90
31455;DHT22;18084;53.028;8.834;2023-08-08T14:52:18;21.70;99.90
31455;DHT22;18084;53.028;8.834;2023-08-08T14:54:44;19.60;1.00
31455;DHT22;18084;53.028;8.834;2023-08-08T14:57:09;20.30;6.20
31455;DHT22;18084;53.028;8.834;2023-08-08T14:59:39;21.00;1.00
31455;DHT22;18084;53.028;8.834;2023-08-08T15:02:04;20.60;13.60
31455;DHT22;18084;53.028;8.834;2023-08-08T15:04:30;21.00;99.90
31455;DHT22;18084;53.028;8.834;2023-08-08T15:06:56;19.80;20.60
31455;DHT22;18084;53.028;8.834;2023-08-08T15:09:21;20.50;1.00
31455;DHT22;18084;53.028;8.834;2023-08-08T15:11:47;22.20;99.90
31455;DHT22;18084;53.028;8.834;2023-08-08T15:14:12;19.80;13.30
31455;DHT22;18084;53.028;8.834;2023-08-08T15:16:38;22.30;16.80
31455;DHT22;18084;53.028;8.834;2023-08-08T15:19:04;19.20;99.90
31455;DHT22;18084;53.028;8.834;2023-08-08T15:21:31;20.10;99.90
31455;DHT22;18084;53.028;8.834;2023-08-08T15:23:57;21.90;99.90
31455;DHT22;18084;53.028;8.834;2023-08-08T15:26:22;20.30;1.00
31455;DHT22;18084;53.028;8.834;2023-08-08T15:28:49;19.90;99.90
31455;DHT22;18084;53.028;8.834;2023-08-08T15:31:15;20.40;99.90
31455;DHT22;18084;53.028;8.834;2023-08-08T15:33:41;20.80;97.20
31455;DHT22;18084;53.028;8.834;2023-08-08T15:36:09;20.00;51.30
31455;DHT22;18084;53.028;8.834;2023-08-08T15:38:34;22.40;99.90
31455;DHT22;18084;53.028;8.834;2023-08-08T15:41:00;19.70;1.00
31455;DHT22;18084;53.028;8.834;2023-08-08T15:43:26;21.80;1.00
31455;DHT22;18084;53.028;8.834;2023-08-08T15:45:52;19.50;88.20
31455;DHT22;18084;53.028;8.834;2023-08-08T15:48:17;19.80;99.90
31455;DHT22;18084;53.028;8.834;2023-08-08T15:50:43;20.60;99.90
31455;DHT22;18084;53.028;8.834;2023-08-08T15:53:09;19.60;99.90
31455;DHT22;18084;53.028;8.834;2023-08-08T15:55:36;21.60;1.00
31455;DHT22;18084;53.028;8.834;2023-08-08T15:58:02;19.10;1.00
31455;DHT22;18084;53.028;8.834;2023-08-08T16:00:30;18.70;99.90
31455;DHT22;18084;53.028;8.834;2023-08-08T16:05:21;18.80;5.80
31455;DHT22;18084;53.028;8.834;2023-08-08T16:07:49;19.00;99.90
31455;DHT22;18084;53.028;8.834;2023-08-08T16:10:24;18.90;99.90
31455;DHT22;18084;53.028;8.834;2023-08-08T16:12:50;19.70;99.90
31455;DHT22;18084;53.028;8.834;2023-08-08T16:15:21;19.10;40.00
31455;DHT22;18084;53.028;8.834;2023-08-08T16:17:49;19.40;1.00
31455;DHT22;18084;53.028;8.834;2023-08-08T16:23:38;18.90;58.30
31455;DHT22;18084;53.028;8.834;2023-08-08T16:26:03;18.60;99.90
31455;DHT22;18084;53.028;8.834;2023-08-08T16:28:29;18.80;99.90
31455;DHT22;18084;53.028;8.834;2023-08-08T16:31:02;18.40;99.90
31455;DHT22;18084;53.028;8.834;2023-08-08T16:37:24;18.50;99.90
31455;DHT22;18084;53.028;8.834;2023-08-08T16:39:50;19.30;99.90
31455;DHT22;18084;53.028;8.834;2023-08-08T16:42:16;19.30;99.90
31455;DHT22;18084;53.028;8.834;2023-08-08T16:45:08;18.70;99.90
31455;DHT22;18084;53.028;8.834;2023-08-08T16:48:49;18.80;44.20
31455;DHT22;18084;53.028;8.834;2023-08-08T16:54:42;18.80;99.90
31455;DHT22;18084;53.028;8.834;2023-08-08T16:57:08;18.80;99.90
31455;DHT22;18084;53.028;8.834;2023-08-08T16:59:37;18.90;99.90
31455;DHT22;18084;53.028;8.834;2023-08-08T17:02:03;20.20;99.90
31455;DHT22;18084;53.028;8.834;2023-08-08T17:04:29;18.70;99.90
31455;DHT22;18084;53.028;8.834;2023-08-08T17:06:57;18.60;99.90
31455;DHT22;18084;53.028;8.834;2023-08-08T17:09:22;18.70;1.00
31455;DHT22;18084;53.028;8.834;2023-08-08T17:11:48;18.20;9.80
31455;DHT22;18084;53.028;8.834;2023-08-08T17:14:17;20.10;99.90
31455;DHT22;18084;53.028;8.834;2023-08-08T17:16:42;18.60;99.90
31455;DHT22;18084;53.028;8.834;2023-08-08T17:19:10;18.40;33.60
31455;DHT22;18084;53.028;8.834;2023-08-08T17:21:39;19.30;1.00
31455;DHT22;18084;53.028;8.834;2023-08-08T17:24:05;18.40;1.00
31455;DHT22;18084;53.028;8.834;2023-08-08T17:26:33;18.10;80.50
31455;DHT22;18084;53.028;8.834;2023-08-08T17:29:00;17.90;99.60
31455;DHT22;18084;53.028;8.834;2023-08-08T17:31:26;17.10;36.40
31455;DHT22;18084;53.028;8.834;2023-08-08T17:33:51;17.80;99.90
31455;DHT22;18084;53.028;8.834;2023-08-08T17:36:19;17.70;99.90
31455;DHT22;18084;53.028;8.834;2023-08-08T17:38:44;17.50;99.90
31455;DHT22;18084;53.028;8.834;2023-08-08T17:41:10;17.70;3.50
31455;DHT22;18084;53.028;8.834;2023-08-08T17:43:37;19.00;99.90
31455;DHT22;18084;53.028;8.834;2023-08-08T17:46:02;18.80;1.00
31455;DHT22;18084;53.028;8.834;2023-08-08T17:48:29;17.40;99.90
31455;DHT22;18084;53.028;8.834;2023-08-08T17:50:56;17.40;1.00
31455;DHT22;18084;53.028;8.834;2023-08-08T17:56:58;17.40;99.90
31455;DHT22;18084;53.028;8.834;2023-08-08T17:59:38;17.20;52.10
31455;DHT22;18084;53.028;8.834;2023-08-08T18:02:13;17.20;63.60
31455;DHT22;18084;53.028;8.834;2023-08-08T18:04:38;18.40;99.90
31455;DHT22;18084;53.028;8.834;2023-08-08T18:07:04;18.20;1.00
31455;DHT22;18084;53.028;8.834;2023-08-08T18:09:30;17.00;99.90
31455;DHT22;18084;53.028;8.834;2023-08-08T18:11:59;17.80;99.90
31455;DHT22;18084;53.028;8.834;2023-08-08T18:14:24;16.60;1.00
31455;DHT22;18084;53.028;8.834;2023-08-08T18:16:50;17.50;78.60
31455;DHT22;18084;53.028;8.834;2023-08-08T18:19:19;17.10;14.00
31455;DHT22;18084;53.028;8.834;2023-08-08T18:21:47;17.00;99.90
31455;DHT22;18084;53.028;8.834;2023-08-08T18:24:14;16.20;49.60
31455;DHT22;18084;53.028;8.834;2023-08-08T18:26:40;16.80;99.90
31455;DHT22;18084;53.028;8.834;2023-08-08T18:29:08;17.90;99.90
31455;DHT22;18084;53.028;8.834;2023-08-08T18:31:37;16.70;1.00
31455;DHT22;18084;53.028;8.834;2023-08-08T18:34:03;17.80;99.90
31455;DHT22;18084;53.028;8.834;2023-08-08T18:36:32;16.40;98.90
31455;DHT22;18084;53.028;8.834;2023-08-08T18:38:59;17.80;99.90
31455;DHT22;18084;53.028;8.834;2023-08-08T18:41:26;17.30;99.90
31455;DHT22;18084;53.028;8.834;2023-08-08T18:43:52;16.20;99.90
31455;DHT22;18084;53.028;8.834;2023-08-08T18:46:17;17.00;99.90
31455;DHT22;18084;53.028;8.834;2023-08-08T18:48:47;16.40;3.70
31455;DHT22;18084;53.028;8.834;2023-08-08T18:51:13;17.00;71.60
31455;DHT22;18084;53.028;8.834;2023-08-08T18:53:58;16.00;84.30
31455;DHT22;18084;53.028;8.834;2023-08-08T18:56:30;15.90;99.90
31455;DHT22;18084;53.028;8.834;2023-08-08T18:58:57;16.90;1.00
31455;DHT22;18084;53.028;8.834;2023-08-08T19:01:26;17.40;99.90
31455;DHT22;18084;53.028;8.834;2023-08-08T19:03:54;15.80;1.00
31455;DHT22;18084;53.028;8.834;2023-08-08T19:06:22;15.70;99.90
31455;DHT22;18084;53.028;8.834;2023-08-08T19:08:57;15.70;99.90
31455;DHT22;18084;53.028;8.834;2023-08-08T19:11:26;17.20;1.00
31455;DHT22;18084;53.028;8.834;2023-08-08T19:14:12;16.30;95.00
31455;DHT22;18084;53.028;8.834;2023-08-08T19:19:53;15.40;99.90
31455;DHT22;18084;53.028;8.834;2023-08-08T19:22:18;15.50;11.00
31455;DHT22;18084;53.028;8.834;2023-08-08T19:24:47;15.30;1.00
31455;DHT22;18084;53.028;8.834;2023-08-08T19:27:14;15.20;99.90
31455;DHT22;18084;53.028;8.834;2023-08-08T19:29:41;15.10;99.90
31455;DHT22;18084;53.028;8.834;2023-08-08T19:32:09;15.40;99.90
31455;DHT22;18084;53.028;8.834;2023-08-08T19:34:34;15.00;99.90
31455;DHT22;18084;53.028;8.834;2023-08-08T19:37:00;16.30;99.90
31455;DHT22;18084;53.028;8.834;2023-08-08T19:39:26;14.90;99.90
31455;DHT22;18084;53.028;8.834;2023-08-08T19:41:51;14.80;99.90
31455;DHT22;18084;53.028;8.834;2023-08-08T19:44:17;13.70;99.90
31455;DHT22;18084;53.028;8.834;2023-08-08T19:46:46;16.30;99.90
31455;DHT22;18084;53.028;8.834;2023-08-08T19:49:15;14.70;99.90
31455;DHT22;18084;53.028;8.834;2023-08-08T19:51:40;15.60;99.90
31455;DHT22;18084;53.028;8.834;2023-08-08T19:54:06;14.60;99.90
31455;DHT22;18084;53.028;8.834;2023-08-08T19:56:32;14.50;99.90
31455;DHT22;18084;53.028;8.834;2023-08-08T19:58:57;15.20;99.90
31455;DHT22;18084;53.028;8.834;2023-08-08T20:01:26;15.70;99.90
31455;DHT22;18084;53.028;8.834;2023-08-08T20:03:54;14.40;99.90
31455;DHT22;18084;53.028;8.834;2023-08-08T20:06:22;14.40;99.90
31455;DHT22;18084;53.028;8.834;2023-08-08T20:08:48;14.30;99.90
31455;DHT22;18084;53.028;8.834;2023-08-08T20:11:13;14.40;99.90
31455;DHT22;18084;53.028;8.834;2023-08-08T20:13:47;14.40;99.90
31455;DHT22;18084;53.028;8.834;2023-08-08T20:16:15;14.20;99.90
31455;DHT22;18084;53.028;8.834;2023-08-08T20:18:41;15.40;99.90
31455;DHT22;18084;53.028;8.834;2023-08-08T20:21:08;14.40;99.90
31455;DHT22;18084;53.028;8.834;2023-08-08T20:23:40;14.20;99.90
31455;DHT22;18084;53.028;8.834;2023-08-08T20:26:06;14.20;99.90
31455;DHT22;18084;53.028;8.834;2023-08-08T20:28:34;14.40;99.90
31455;DHT22;18084;53.028;8.834;2023-08-08T20:31:04;15.70;99.90
31455;DHT22;18084;53.028;8.834;2023-08-08T20:33:29;15.50;99.90
31455;DHT22;18084;53.028;8.834;2023-08-08T20:35:58;14.20;99.90
31455;DHT22;18084;53.028;8.834;2023-08-08T20:38:24;14.10;99.90
31455;DHT22;18084;53.028;8.834;2023-08-08T20:40:49;14.60;1.00
31455;DHT22;18084;53.028;8.834;2023-08-08T20:43:16;13.80;1.00
31455;DHT22;18084;53.028;8.834;2023-08-08T20:45:42;13.80;1.00
31455;DHT22;18084;53.028;8.834;2023-08-08T20:48:08;13.10;1.00
31455;DHT22;18084;53.028;8.834;2023-08-08T20:50:33;13.90;1.00
31455;DHT22;18084;53.028;8.834;2023-08-08T20:52:59;15.10;1.00
31455;DHT22;18084;53.028;8.834;2023-08-08T20:55:25;15.30;1.00
31455;DHT22;18084;53.028;8.834;2023-08-08T20:57:53;14.60;1.00
31455;DHT22;18084;53.028;8.834;2023-08-08T21:00:22;14.60;1.00
31455;DHT22;18084;53.028;8.834;2023-08-08T21:02:48;13.50;1.00
31455;DHT22;18084;53.028;8.834;2023-08-08T21:05:14;13.40;1.00
31455;DHT22;18084;53.028;8.834;2023-08-08T21:07:39;13.60;1.00
31455;DHT22;18084;53.028;8.834;2023-08-08T21:10:05;14.70;1.00
31455;DHT22;18084;53.028;8.834;2023-08-08T21:12:31;13.40;1.00
31455;DHT22;18084;53.028;8.834;2023-08-08T21:14:56;13.30;1.00
31455;DHT22;18084;53.028;8.834;2023-08-08T21:17:22;13.30;1.00
31455;DHT22;18084;53.028;8.834;2023-08-08T21:19:48;13.20;3.20
31455;DHT22;18084;53.028;8.834;2023-08-08T21:22:18;13.20;1.00
31455;DHT22;18084;53.028;8.834;2023-08-08T21:24:47;13.20;12.00
31455;DHT22;18084;53.028;8.834;2023-08-08T21:47:55;13.00;27.00
31455;DHT22;18084;53.028;8.834;2023-08-08T21:50:21;14.80;25.00
31455;DHT22;18084;53.028;8.834;2023-08-08T21:52:46;14.00;27.40
31455;DHT22;18084;53.028;8.834;2023-08-08T21:55:12;14.40;25.50
31455;DHT22;18084;53.028;8.834;2023-08-08T21:57:38;13.80;30.30
31455;DHT22;18084;53.028;8.834;2023-08-08T22:00:03;14.30;34.40
31455;DHT22;18084;53.028;8.834;2023-08-08T22:02:30;12.70;37.30
31455;DHT22;18084;53.028;8.834;2023-08-08T22:04:56;15.30;39.20